Time;durP1;ratioP1;P1;durP2;ratioP2;P2;SDS_P1;SDS_P2;PMS_P1;PMS_P2;Temp;Humidity;BMP_temperature;BMP_pressure;BME280_temperature;BME280_humidity;BME280_pressure;Samples;Min_cycle;Max_cycle;Signal;HPM_P1;HPM_P2
2023/05/22 00:00:31;;;;;;;9.20;8.30;;;16.70;99.90;;;;;;5110334;28;20536;-41
2023/05/22 00:02:57;;;;;;;11.07;7.95;;;16.70;99.90;;;;;;5110969;28;20553;-41
2023/05/22 00:05:23;;;;;;;10.85;8.38;;;16.70;99.90;;;;;;5111484;28;20523;-41
2023/05/22 00:07:49;;;;;;;9.88;8.55;;;16.60;99.90;;;;;;5111064;28;20035;-41
2023/05/22 00:10:14;;;;;;;10.88;8.40;;;16.60;99.90;;;;;;5111307;28;20020;-41
2023/05/22 00:12:40;;;;;;;9.27;8.30;;;16.60;99.90;;;;;;5110629;28;20100;-42
2023/05/22 00:15:06;;;;;;;9.27;8.05;;;16.50;99.90;;;;;;5110689;28;20024;-41
2023/05/22 00:17:32;;;;;;;11.45;8.30;;;16.50;99.90;;;;;;5110986;28;20065;-41
2023/05/22 00:20:07;;;;;;;10.45;8.13;;;16.50;99.90;;;;;;5110776;28;20068;-41
2023/05/22 00:22:34;;;;;;;12.52;8.02;;;16.40;99.90;;;;;;5110519;28;20307;-41
2023/05/22 00:25:03;;;;;;;12.10;8.60;;;16.40;99.90;;;;;;5100456;28;20066;-41
2023/05/22 00:27:29;;;;;;;9.57;8.18;;;16.30;99.90;;;;;;5090127;28;20076;-41
2023/05/22 00:29:55;;;;;;;15.20;8.55;;;16.30;99.90;;;;;;5089682;28;20024;-41
2023/05/22 00:32:20;;;;;;;10.30;9.02;;;16.30;99.90;;;;;;5087903;28;20047;-41
2023/05/22 00:34:46;;;;;;;10.35;8.15;;;16.30;99.90;;;;;;5089325;28;20047;-42
2023/05/22 00:37:11;;;;;;;8.90;7.95;;;16.20;99.90;;;;;;5089855;28;20103;-42
2023/05/22 00:39:37;;;;;;;10.02;9.00;;;16.30;99.90;;;;;;5090279;28;20052;-42
2023/05/22 00:42:03;;;;;;;11.38;8.60;;;16.20;99.90;;;;;;5090006;28;20460;-41
2023/05/22 00:44:28;;;;;;;10.63;9.15;;;16.20;99.90;;;;;;5089430;28;20054;-43
2023/05/22 00:46:55;;;;;;;12.57;8.32;;;16.20;99.90;;;;;;5089652;28;20399;-41
2023/05/22 00:49:21;;;;;;;12.27;8.80;;;16.20;99.90;;;;;;5090015;28;20031;-43
2023/05/22 00:51:47;;;;;;;13.57;8.80;;;16.20;99.90;;;;;;5089576;28;20251;-41
2023/05/22 00:54:13;;;;;;;12.60;8.90;;;16.20;99.90;;;;;;5086535;28;20385;-43
2023/05/22 00:56:40;;;;;;;10.30;9.00;;;16.30;99.90;;;;;;5089844;28;20047;-41
2023/05/22 00:59:06;;;;;;;10.57;8.02;;;16.20;99.90;;;;;;5090012;28;20012;-41
2023/05/22 01:01:32;;;;;;;10.93;7.25;;;16.30;99.90;;;;;;5088142;28;20500;-42
2023/05/22 01:04:00;;;;;;;10.25;8.75;;;16.30;99.90;;;;;;5089731;28;20551;-41
2023/05/22 01:06:26;;;;;;;11.07;8.70;;;16.30;99.90;;;;;;5089492;28;20040;-41
2023/05/22 01:08:52;;;;;;;10.85;8.68;;;16.30;99.90;;;;;;5089397;28;20031;-41
2023/05/22 01:11:47;;;;;;;9.43;8.45;;;16.30;99.90;;;;;;5093334;28;20016;-41
2023/05/22 01:14:28;;;;;;;11.60;8.60;;;16.30;99.90;;;;;;5097694;28;20032;-45
2023/05/22 01:17:33;;;;;;;10.23;8.30;;;16.20;99.90;;;;;;5093018;28;20027;-42
2023/05/22 01:20:13;;;;;;;10.43;8.32;;;16.20;99.90;;;;;;5062923;28;20435;-41
2023/05/22 01:23:14;;;;;;;9.98;8.23;;;16.20;99.90;;;;;;5092017;28;20090;-40
2023/05/22 01:26:16;;;;;;;8.95;8.05;;;16.20;99.90;;;;;;5094286;28;20497;-43
2023/05/22 01:29:05;;;;;;;10.20;8.48;;;16.10;99.90;;;;;;5110017;28;20429;-41
2023/05/22 01:31:35;;;;;;;11.38;9.57;;;16.10;99.90;;;;;;5109593;28;20062;-41
2023/05/22 01:34:02;;;;;;;15.45;8.65;;;16.00;99.90;;;;;;5108946;28;20440;-42
2023/05/22 01:36:30;;;;;;;9.43;8.30;;;16.00;99.90;;;;;;5109503;28;20425;-41
2023/05/22 01:38:59;;;;;;;9.45;8.48;;;16.00;99.90;;;;;;5096122;28;20441;-41
2023/05/22 01:41:26;;;;;;;8.80;7.90;;;16.00;99.90;;;;;;5109510;28;20373;-41
2023/05/22 01:43:52;;;;;;;9.55;8.15;;;15.90;99.90;;;;;;5109168;28;20024;-41
2023/05/22 01:46:17;;;;;;;8.00;7.20;;;15.90;99.90;;;;;;5105664;28;20020;-41
2023/05/22 01:48:43;;;;;;;10.73;8.63;;;15.90;99.90;;;;;;5078298;28;20063;-41
2023/05/22 01:51:33;;;;;;;12.63;7.78;;;15.90;99.90;;;;;;5088640;28;20763;-41
2023/05/22 01:54:23;;;;;;;11.73;8.07;;;15.80;99.90;;;;;;5088538;28;20024;-41
2023/05/22 01:57:04;;;;;;;9.27;8.27;;;15.80;99.90;;;;;;5089024;28;20028;-44
2023/05/22 01:59:44;;;;;;;9.15;7.90;;;15.80;99.90;;;;;;5089048;28;20243;-42
2023/05/22 02:02:12;;;;;;;10.63;8.68;;;15.70;99.90;;;;;;5088537;28;20019;-43
2023/05/22 02:04:41;;;;;;;9.05;8.10;;;15.70;99.90;;;;;;5088267;28;20024;-43
2023/05/22 02:07:10;;;;;;;13.05;7.90;;;15.70;99.90;;;;;;5088601;28;20374;-43
2023/05/22 02:09:37;;;;;;;9.98;7.57;;;15.70;99.90;;;;;;5088521;28;20038;-44
2023/05/22 02:12:04;;;;;;;13.10;8.48;;;15.70;99.90;;;;;;5088097;28;20021;-43
2023/05/22 02:14:30;;;;;;;9.13;8.05;;;15.70;99.90;;;;;;5088113;28;20081;-42
2023/05/22 02:16:56;;;;;;;11.07;8.73;;;15.70;99.90;;;;;;5088643;28;20024;-43
2023/05/22 02:19:23;;;;;;;10.07;8.55;;;15.70;99.90;;;;;;5088516;28;20031;-42
2023/05/22 02:21:48;;;;;;;9.68;8.43;;;15.70;99.90;;;;;;5088357;28;20031;-43
2023/05/22 02:24:14;;;;;;;10.32;8.65;;;15.70;99.90;;;;;;5072097;28;20213;-44
2023/05/22 02:26:41;;;;;;;10.07;8.55;;;15.70;99.90;;;;;;5092721;28;20027;-40
2023/05/22 02:29:07;;;;;;;13.63;9.00;;;15.60;99.90;;;;;;5092414;28;20026;-41
2023/05/22 02:31:32;;;;;;;9.65;8.65;;;15.70;99.90;;;;;;5092402;28;20032;-41
2023/05/22 02:33:58;;;;;;;11.23;8.57;;;15.60;99.90;;;;;;5092283;28;20032;-41
2023/05/22 02:36:25;;;;;;;11.20;8.40;;;15.60;99.90;;;;;;5074419;28;20016;-41
2023/05/22 02:38:50;;;;;;;10.57;8.30;;;15.60;99.90;;;;;;5092446;28;20016;-41
2023/05/22 02:41:16;;;;;;;10.57;8.38;;;15.60;99.90;;;;;;5092116;28;20427;-42
2023/05/22 02:43:42;;;;;;;12.35;9.00;;;15.60;99.90;;;;;;5092171;28;20024;-42
2023/05/22 02:46:07;;;;;;;10.00;7.97;;;15.60;99.90;;;;;;5092374;28;20024;-42
2023/05/22 02:48:33;;;;;;;12.05;8.68;;;15.50;99.90;;;;;;5109463;28;20039;-43
2023/05/22 02:50:59;;;;;;;8.75;7.95;;;15.50;99.90;;;;;;5112891;28;20092;-41
2023/05/22 02:53:25;;;;;;;11.70;8.93;;;15.50;99.90;;;;;;5110932;28;20024;-41
2023/05/22 02:55:52;;;;;;;10.65;8.15;;;15.50;99.90;;;;;;5112327;28;20023;-41
2023/05/22 02:58:18;;;;;;;9.48;8.43;;;15.50;99.90;;;;;;5095565;28;20016;-41
2023/05/22 03:00:44;;;;;;;11.07;8.60;;;15.50;99.90;;;;;;5112535;28;20016;-42
2023/05/22 03:03:10;;;;;;;11.18;8.73;;;15.50;99.90;;;;;;5112051;28;20011;-41
2023/05/22 03:05:36;;;;;;;9.60;8.35;;;15.50;99.90;;;;;;5112515;28;20023;-43
2023/05/22 03:08:01;;;;;;;10.40;8.38;;;15.50;99.90;;;;;;5109295;28;20084;-46
2023/05/22 03:10:27;;;;;;;10.82;7.72;;;15.50;99.90;;;;;;5105184;28;20028;-43
2023/05/22 03:12:52;;;;;;;9.70;8.02;;;15.50;99.90;;;;;;5111869;28;20503;-42
2023/05/22 03:15:18;;;;;;;11.50;8.15;;;15.40;99.90;;;;;;5095335;28;20024;-43
2023/05/22 03:17:44;;;;;;;13.50;8.75;;;15.50;99.90;;;;;;5112063;28;20031;-42
2023/05/22 03:20:15;;;;;;;10.23;8.57;;;15.50;99.90;;;;;;5112158;28;20026;-41
2023/05/22 03:22:41;;;;;;;9.57;7.95;;;15.50;99.90;;;;;;5111711;28;20023;-41
2023/05/22 03:25:08;;;;;;;11.55;7.45;;;15.50;99.90;;;;;;5112169;27;20047;-42
2023/05/22 03:27:34;;;;;;;9.38;8.32;;;15.50;99.90;;;;;;5111861;28;20290;-41
2023/05/22 03:30:00;;;;;;;13.18;8.20;;;15.50;99.90;;;;;;5111851;28;20616;-46
2023/05/22 03:32:26;;;;;;;11.65;9.13;;;15.50;99.90;;;;;;5111411;28;20419;-41
2023/05/22 03:34:51;;;;;;;10.82;7.97;;;15.50;99.90;;;;;;5112053;28;20053;-42
2023/05/22 03:37:17;;;;;;;11.55;7.90;;;15.50;99.90;;;;;;5111870;28;20020;-41
2023/05/22 03:39:42;;;;;;;8.95;8.05;;;15.50;99.90;;;;;;5111766;28;20020;-42
2023/05/22 03:42:08;;;;;;;10.80;8.15;;;15.40;99.90;;;;;;5111528;28;20050;-42
2023/05/22 03:44:33;;;;;;;8.48;7.50;;;15.40;99.90;;;;;;5111536;28;20034;-41
2023/05/22 03:46:59;;;;;;;15.20;9.45;;;15.40;99.90;;;;;;5111807;28;20435;-41
2023/05/22 03:49:24;;;;;;;9.02;7.97;;;15.40;99.90;;;;;;5111741;28;20016;-41
2023/05/22 03:51:50;;;;;;;10.13;8.73;;;15.40;99.90;;;;;;5111176;28;20076;-42
2023/05/22 03:54:15;;;;;;;9.23;8.25;;;15.40;99.90;;;;;;5111021;28;20024;-41
2023/05/22 03:56:42;;;;;;;9.60;8.18;;;15.40;99.90;;;;;;5111424;28;20023;-41
2023/05/22 03:59:07;;;;;;;9.70;8.70;;;15.40;99.90;;;;;;5110462;28;20524;-41
2023/05/22 04:01:33;;;;;;;10.27;8.32;;;15.40;99.90;;;;;;5104820;28;20035;-41
2023/05/22 04:03:59;;;;;;;10.38;8.30;;;15.40;99.90;;;;;;5109659;28;20030;-42
2023/05/22 04:06:25;;;;;;;11.48;8.52;;;15.40;99.90;;;;;;5111386;28;20072;-42
2023/05/22 04:08:51;;;;;;;12.70;9.27;;;15.40;99.90;;;;;;5110866;28;20019;-42
2023/05/22 04:11:18;;;;;;;16.20;8.40;;;15.50;99.90;;;;;;5110831;28;20388;-41
2023/05/22 04:13:44;;;;;;;11.50;8.52;;;15.50;99.90;;;;;;5110533;28;20024;-41
2023/05/22 04:16:09;;;;;;;10.43;8.35;;;15.50;99.90;;;;;;5110890;28;20031;-41
2023/05/22 04:18:35;;;;;;;13.40;8.95;;;15.60;99.90;;;;;;5110988;28;20031;-41
2023/05/22 04:21:01;;;;;;;12.25;8.50;;;15.60;99.90;;;;;;5110769;28;20031;-41
2023/05/22 04:23:27;;;;;;;8.50;7.60;;;15.60;99.90;;;;;;5110441;28;20686;-41
2023/05/22 04:25:52;;;;;;;9.20;8.27;;;15.60;99.90;;;;;;5110926;28;20028;-43
2023/05/22 04:28:21;;;;;;;10.02;8.60;;;15.60;99.90;;;;;;5110764;28;20028;-42
2023/05/22 04:30:47;;;;;;;11.02;8.60;;;15.60;99.90;;;;;;5110745;28;20023;-41
2023/05/22 04:33:12;;;;;;;8.88;7.60;;;15.60;99.90;;;;;;5109196;28;20114;-41
2023/05/22 04:35:39;;;;;;;8.73;7.45;;;15.60;99.90;;;;;;5109442;28;20214;-41
2023/05/22 04:38:05;;;;;;;9.63;7.28;;;15.60;99.90;;;;;;5110283;28;20043;-42
2023/05/22 04:40:32;;;;;;;8.85;7.95;;;15.70;99.90;;;;;;5110415;28;20051;-42
2023/05/22 04:42:59;;;;;;;8.35;7.55;;;15.70;99.90;;;;;;5106235;28;20020;-41
2023/05/22 04:45:27;;;;;;;9.63;7.95;;;15.80;99.90;;;;;;5109180;28;20024;-42
2023/05/22 04:47:53;;;;;;;11.68;7.60;;;15.80;99.90;;;;;;5109700;28;20330;-43
2023/05/22 04:50:19;;;;;;;9.98;8.15;;;15.90;99.90;;;;;;5110102;28;20020;-43
2023/05/22 04:52:46;;;;;;;8.38;7.43;;;15.90;99.90;;;;;;5109602;28;20026;-43
2023/05/22 04:55:12;;;;;;;12.27;7.70;;;16.00;99.90;;;;;;5109995;28;20528;-43
2023/05/22 04:57:38;;;;;;;9.52;7.32;;;16.10;99.90;;;;;;5110073;27;20028;-46
2023/05/22 05:00:05;;;;;;;9.50;7.55;;;16.20;99.90;;;;;;5096567;28;20485;-43
2023/05/22 05:02:31;;;;;;;12.90;8.00;;;16.30;99.90;;;;;;5108615;28;20026;-46
2023/05/22 05:04:56;;;;;;;8.05;6.88;;;16.30;99.90;;;;;;5109927;28;20024;-43
2023/05/22 05:07:22;;;;;;;11.77;8.13;;;16.40;99.90;;;;;;5106788;28;20126;-42
2023/05/22 05:09:48;;;;;;;7.93;6.78;;;16.50;99.90;;;;;;5106827;28;20299;-43
2023/05/22 05:12:14;;;;;;;8.15;7.30;;;16.50;99.90;;;;;;5108555;28;20027;-42
2023/05/22 05:14:40;;;;;;;12.18;8.70;;;16.70;99.90;;;;;;5108079;27;20380;-43
2023/05/22 05:17:06;;;;;;;10.38;7.50;;;16.70;99.90;;;;;;5107905;28;20023;-42
2023/05/22 05:19:33;;;;;;;13.15;7.95;;;16.80;99.90;;;;;;5106218;28;20020;-42
2023/05/22 05:21:58;;;;;;;11.85;7.28;;;16.90;99.90;;;;;;5103720;28;20078;-45
2023/05/22 05:24:24;;;;;;;8.48;7.20;;;17.00;99.90;;;;;;5109389;28;20524;-43
2023/05/22 05:26:50;;;;;;;11.07;8.07;;;17.10;99.90;;;;;;5104649;28;20033;-41
2023/05/22 05:29:15;;;;;;;8.73;7.60;;;17.10;99.90;;;;;;5109823;28;20028;-44
2023/05/22 05:31:41;;;;;;;8.25;7.25;;;17.30;99.90;;;;;;5108855;28;20047;-43
2023/05/22 05:34:06;;;;;;;10.27;7.95;;;17.30;99.90;;;;;;5108849;28;20015;-44
2023/05/22 05:36:32;;;;;;;11.68;8.00;;;17.40;99.90;;;;;;5106999;28;20377;-43
2023/05/22 05:38:57;;;;;;;11.10;6.93;;;17.40;99.90;;;;;;5096790;28;20440;-42
2023/05/22 05:41:23;;;;;;;10.32;7.10;;;17.50;99.90;;;;;;5101394;28;20508;-43
2023/05/22 05:43:51;;;;;;;8.43;6.80;;;17.60;99.90;;;;;;5104237;28;20103;-46
2023/05/22 05:46:17;;;;;;;10.23;7.72;;;17.60;99.90;;;;;;5099372;28;20102;-41
2023/05/22 05:48:42;;;;;;;10.68;7.50;;;17.70;99.90;;;;;;5109207;28;20024;-45
2023/05/22 05:51:08;;;;;;;8.15;7.10;;;17.90;99.90;;;;;;5108863;28;20089;-42
2023/05/22 05:53:35;;;;;;;8.57;6.97;;;17.90;99.90;;;;;;5099528;28;20028;-42
2023/05/22 05:56:02;;;;;;;7.82;6.75;;;17.90;99.90;;;;;;5075490;28;20029;-42
2023/05/22 05:58:27;;;;;;;15.93;7.30;;;18.10;99.90;;;;;;5107721;28;20030;-44
2023/05/22 06:00:53;;;;;;;11.73;6.95;;;18.10;99.90;;;;;;5108758;28;20020;-43
2023/05/22 06:03:18;;;;;;;9.20;6.20;;;18.10;99.90;;;;;;5108012;28;20034;-44
2023/05/22 06:05:48;;;;;;;9.80;6.43;;;18.20;99.90;;;;;;5108909;28;20107;-43
2023/05/22 06:08:14;;;;;;;11.97;7.70;;;18.30;99.90;;;;;;5108571;28;20580;-43
2023/05/22 06:10:40;;;;;;;10.80;6.68;;;18.30;99.90;;;;;;5107953;28;20107;-43
2023/05/22 06:13:05;;;;;;;9.93;6.72;;;18.40;99.90;;;;;;5103033;28;20024;-45
2023/05/22 06:15:31;;;;;;;11.38;6.60;;;18.50;99.90;;;;;;5108989;28;20401;-43
2023/05/22 06:17:57;;;;;;;9.13;6.53;;;18.60;99.90;;;;;;5093475;28;20486;-43
2023/05/22 06:20:23;;;;;;;8.00;6.53;;;18.70;99.90;;;;;;5107309;28;20824;-46
2023/05/22 06:22:50;;;;;;;8.07;6.70;;;18.80;99.90;;;;;;5108080;28;20213;-46
2023/05/22 06:25:16;;;;;;;7.57;6.53;;;18.80;99.90;;;;;;5109015;28;20054;-43
2023/05/22 06:27:41;;;;;;;7.78;5.95;;;19.00;99.90;;;;;;5101230;28;20099;-42
2023/05/22 06:30:08;;;;;;;11.13;6.10;;;19.10;99.90;;;;;;5105771;28;20485;-44
2023/05/22 06:32:33;;;;;;;10.93;7.28;;;19.20;99.90;;;;;;5106249;28;20016;-44
2023/05/22 06:34:59;;;;;;;7.53;6.38;;;19.40;99.90;;;;;;5108361;28;20016;-42
2023/05/22 06:37:25;;;;;;;7.47;6.20;;;19.50;99.90;;;;;;5104631;28;20022;-42
2023/05/22 06:39:50;;;;;;;7.75;6.43;;;19.50;99.90;;;;;;5108406;28;20055;-43
2023/05/22 06:42:16;;;;;;;6.70;5.97;;;19.60;99.90;;;;;;5106401;28;20015;-42
2023/05/22 06:44:41;;;;;;;9.77;6.63;;;19.60;99.90;;;;;;5107549;28;20054;-42
2023/05/22 06:47:07;;;;;;;8.45;6.32;;;19.70;99.90;;;;;;5108060;28;20100;-45
2023/05/22 06:49:32;;;;;;;9.88;6.93;;;19.80;99.90;;;;;;5108827;28;20027;-45
2023/05/22 06:51:58;;;;;;;9.32;6.35;;;19.80;99.90;;;;;;5108410;28;20023;-44
2023/05/22 06:54:27;;;;;;;8.63;6.40;;;19.90;99.90;;;;;;5106470;28;20024;-44
2023/05/22 06:56:53;;;;;;;11.25;7.07;;;19.90;99.90;;;;;;5089863;28;20031;-43
2023/05/22 06:59:19;;;;;;;9.45;6.57;;;20.00;99.90;;;;;;5108269;28;20020;-42
2023/05/22 07:01:45;;;;;;;12.43;6.70;;;20.00;99.90;;;;;;5108140;28;20028;-44
2023/05/22 07:04:12;;;;;;;7.53;5.90;;;20.10;99.70;;;;;;5106738;28;20043;-46
2023/05/22 07:06:40;;;;;;;7.40;6.30;;;20.10;99.30;;;;;;5108612;28;20413;-45
2023/05/22 07:09:07;;;;;;;9.73;6.30;;;20.20;99.20;;;;;;5086900;28;20151;-45
2023/05/22 07:11:33;;;;;;;10.70;6.47;;;20.30;98.70;;;;;;5111337;28;20500;-41
2023/05/22 07:14:02;;;;;;;13.98;6.80;;;20.40;98.80;;;;;;5108842;28;20019;-44
2023/05/22 07:16:30;;;;;;;8.27;6.03;;;20.40;98.80;;;;;;5111902;28;20229;-42
2023/05/22 07:18:55;;;;;;;10.52;6.53;;;20.30;99.00;;;;;;5111994;28;20523;-43
2023/05/22 07:21:24;;;;;;;8.10;6.57;;;20.40;98.50;;;;;;5111761;28;20031;-44
2023/05/22 07:23:52;;;;;;;11.38;7.15;;;20.50;98.60;;;;;;5111679;28;20022;-42
2023/05/22 07:26:18;;;;;;;9.20;6.63;;;20.60;98.60;;;;;;5110244;28;20020;-43
2023/05/22 07:28:43;;;;;;;10.65;6.43;;;20.90;97.80;;;;;;5111763;28;20020;-43
2023/05/22 07:31:09;;;;;;;9.55;6.35;;;21.10;97.90;;;;;;5111559;28;20032;-45
2023/05/22 07:33:35;;;;;;;8.10;6.22;;;21.30;97.40;;;;;;5110936;28;20051;-43
2023/05/22 07:36:00;;;;;;;11.57;6.32;;;21.40;97.30;;;;;;5110298;28;20016;-42
2023/05/22 07:38:26;;;;;;;7.97;5.75;;;21.60;96.10;;;;;;5110158;28;20036;-43
2023/05/22 07:40:51;;;;;;;9.85;6.63;;;21.80;95.30;;;;;;5111952;28;20098;-43
2023/05/22 07:43:17;;;;;;;106.05;71.03;;;21.90;95.20;;;;;;5111189;28;20055;-44
2023/05/22 07:45:43;;;;;;;82.80;59.78;;;22.20;96.10;;;;;;5111261;28;20475;-44
2023/05/22 07:48:08;;;;;;;11.40;7.85;;;22.40;95.30;;;;;;5098214;28;20096;-41
2023/05/22 07:50:34;;;;;;;7.28;6.03;;;22.70;94.90;;;;;;5111415;28;20024;-42
2023/05/22 07:53:00;;;;;;;12.13;6.28;;;22.80;94.60;;;;;;5111040;28;20022;-45
2023/05/22 07:55:25;;;;;;;7.43;6.45;;;23.00;94.00;;;;;;5109707;28;20051;-46
2023/05/22 07:57:51;;;;;;;12.02;6.75;;;23.10;93.40;;;;;;5110780;28;20024;-42
2023/05/22 08:00:18;;;;;;;7.13;5.60;;;23.20;92.70;;;;;;5110846;28;20046;-43
2023/05/22 08:02:43;;;;;;;7.22;5.90;;;23.40;93.90;;;;;;5109440;28;20031;-45
2023/05/22 08:05:09;;;;;;;9.85;6.47;;;23.50;92.60;;;;;;5111023;28;20020;-42
2023/05/22 08:07:35;;;;;;;8.23;5.85;;;23.70;93.10;;;;;;5110858;28;20037;-44
2023/05/22 08:10:06;;;;;;;10.45;6.28;;;24.00;92.80;;;;;;5079446;28;20389;-44
2023/05/22 08:12:31;;;;;;;11.98;6.95;;;24.10;90.80;;;;;;5110426;28;20099;-43
2023/05/22 08:14:57;;;;;;;7.65;5.82;;;24.20;90.80;;;;;;5110989;28;20445;-42
2023/05/22 08:17:22;;;;;;;7.22;6.05;;;24.50;90.50;;;;;;5109498;28;20016;-45
2023/05/22 08:19:48;;;;;;;10.77;4.97;;;24.90;89.20;;;;;;5110742;28;20047;-42
2023/05/22 08:22:13;;;;;;;12.85;5.32;;;25.60;87.30;;;;;;5109557;28;20051;-41
2023/05/22 08:24:39;;;;;;;11.60;5.18;;;26.60;85.90;;;;;;5110452;28;20077;-43
2023/05/22 08:27:05;;;;;;;6.13;5.32;;;27.30;80.60;;;;;;5110683;28;20102;-43
2023/05/22 08:29:30;;;;;;;9.70;5.78;;;28.30;77.30;;;;;;5110507;28;20026;-44
2023/05/22 08:31:56;;;;;;;9.68;5.63;;;28.60;77.10;;;;;;5110410;28;20532;-43
2023/05/22 08:34:25;;;;;;;9.70;5.10;;;28.80;73.50;;;;;;5109880;28;20405;-43
2023/05/22 08:36:51;;;;;;;8.02;5.45;;;28.80;73.50;;;;;;5110633;28;20434;-43
2023/05/22 08:39:17;;;;;;;7.68;5.30;;;28.90;73.60;;;;;;5110734;28;20044;-46
2023/05/22 08:41:43;;;;;;;8.88;5.20;;;29.00;73.20;;;;;;5110067;28;20090;-45
2023/05/22 08:44:09;;;;;;;6.32;4.63;;;29.60;70.00;;;;;;5109895;28;20015;-42
2023/05/22 08:46:40;;;;;;;6.43;5.00;;;29.80;70.00;;;;;;5110198;28;20073;-46
2023/05/22 08:49:07;;;;;;;8.27;5.07;;;30.20;67.20;;;;;;5110557;28;20400;-46
2023/05/22 08:51:37;;;;;;;8.38;5.00;;;30.90;67.00;;;;;;5110134;28;20012;-46
2023/05/22 08:54:05;;;;;;;6.75;5.32;;;31.30;65.20;;;;;;5110294;28;20020;-46
2023/05/22 08:56:31;;;;;;;5.97;5.10;;;31.30;65.10;;;;;;5098559;28;20300;-45
2023/05/22 08:58:59;;;;;;;8.10;4.65;;;31.20;64.80;;;;;;5096243;28;20077;-46
2023/05/22 09:01:26;;;;;;;8.57;4.75;;;31.20;64.50;;;;;;5091304;28;20012;-46
2023/05/22 09:03:51;;;;;;;8.23;5.18;;;31.50;64.10;;;;;;5085596;28;20012;-46
2023/05/22 09:06:17;;;;;;;12.35;5.50;;;32.40;62.30;;;;;;5107537;28;20019;-43
2023/05/22 09:08:42;;;;;;;12.05;5.32;;;33.30;60.60;;;;;;5109822;28;20016;-45
2023/05/22 09:11:09;;;;;;;16.42;10.07;;;33.80;59.40;;;;;;5081709;28;20556;-47
2023/05/22 09:13:38;;;;;;;21.88;19.55;;;34.70;56.90;;;;;;5092814;28;20043;-42
2023/05/22 09:16:08;;;;;;;8.60;5.25;;;34.50;57.30;;;;;;5109064;28;20026;-42
2023/05/22 09:18:36;;;;;;;5.85;4.97;;;34.30;56.50;;;;;;5108281;28;20071;-44
2023/05/22 09:21:02;;;;;;;6.75;4.63;;;34.00;55.90;;;;;;5097376;28;20011;-45
2023/05/22 09:23:28;;;;;;;5.53;4.55;;;33.80;55.50;;;;;;5109177;28;20035;-45
2023/05/22 09:25:56;;;;;;;9.65;5.40;;;33.30;56.10;;;;;;5111033;28;20410;-45
2023/05/22 09:28:21;;;;;;;7.15;4.65;;;33.30;55.90;;;;;;5110557;28;20103;-43
2023/05/22 09:30:49;;;;;;;8.00;4.43;;;32.40;57.00;;;;;;5090206;28;20174;-44
2023/05/22 09:33:15;;;;;;;9.32;4.13;;;33.00;58.60;;;;;;5089607;28;20462;-44
2023/05/22 09:35:42;;;;;;;8.43;4.70;;;33.30;57.60;;;;;;5089592;28;20016;-43
2023/05/22 09:38:11;;;;;;;5.78;4.38;;;33.40;56.80;;;;;;5097225;28;20022;-44
2023/05/22 09:40:39;;;;;;;8.70;4.20;;;34.40;55.80;;;;;;5110183;28;20051;-45
2023/05/22 09:43:11;;;;;;;5.97;4.70;;;35.10;54.80;;;;;;5109926;28;20024;-51
2023/05/22 09:45:37;;;;;;;8.45;4.95;;;35.50;53.90;;;;;;5108227;27;20031;-42
2023/05/22 09:48:04;;;;;;;5.43;4.57;;;35.40;53.20;;;;;;5110663;28;20064;-42
2023/05/22 09:50:31;;;;;;;5.20;4.68;;;35.90;54.60;;;;;;5110612;28;20080;-44
2023/05/22 09:53:03;;;;;;;7.43;4.95;;;36.50;53.10;;;;;;5110762;28;20012;-42
2023/05/22 09:55:30;;;;;;;6.30;4.40;;;37.30;51.40;;;;;;5111060;28;20042;-44
2023/05/22 09:57:57;;;;;;;10.93;4.78;;;37.20;52.20;;;;;;5110768;28;20016;-44
2023/05/22 10:00:24;;;;;;;7.70;4.35;;;37.40;52.00;;;;;;5104712;28;20323;-43
2023/05/22 10:03:04;;;;;;;8.52;4.35;;;38.00;50.70;;;;;;5088868;28;20035;-41
2023/05/22 10:05:31;;;;;;;4.50;4.10;;;38.60;49.60;;;;;;5092322;28;20081;-42
2023/05/22 10:08:04;;;;;;;32.22;28.67;;;38.40;49.10;;;;;;5110530;28;20388;-42
2023/05/22 10:10:29;;;;;;;15.70;10.20;;;37.60;49.50;;;;;;5110122;28;20023;-42
2023/05/22 10:12:59;;;;;;;5.53;4.80;;;38.10;48.80;;;;;;5109668;28;20019;-44
2023/05/22 10:15:25;;;;;;;5.30;4.18;;;38.30;48.60;;;;;;5096234;28;20033;-46
2023/05/22 10:17:51;;;;;;;7.15;4.90;;;38.10;49.40;;;;;;5086479;28;20451;-44
2023/05/22 10:20:18;;;;;;;5.60;4.47;;;37.00;48.90;;;;;;5105744;28;20102;-45
2023/05/22 10:22:45;;;;;;;6.57;4.35;;;37.10;50.40;;;;;;5108073;28;20035;-43
2023/05/22 10:25:11;;;;;;;6.55;4.47;;;37.30;50.00;;;;;;5108380;28;20080;-43
2023/05/22 10:27:38;;;;;;;7.00;4.50;;;37.00;49.40;;;;;;5108776;28;20024;-43
2023/05/22 10:30:31;;;;;;;8.63;4.55;;;37.20;49.30;;;;;;5108523;28;20024;-44
2023/05/22 10:33:15;;;;;;;8.85;5.13;;;36.90;49.90;;;;;;5107914;28;20031;-43
2023/05/22 10:35:57;;;;;;;5.78;4.22;;;36.90;50.20;;;;;;5093189;28;20459;-45
2023/05/22 10:38:37;;;;;;;7.43;4.35;;;37.50;49.70;;;;;;5089135;28;20428;-45
2023/05/22 10:41:03;;;;;;;5.85;4.13;;;37.80;49.90;;;;;;5092130;28;20103;-43
2023/05/22 10:43:32;;;;;;;8.00;5.22;;;37.70;48.80;;;;;;5094619;28;20123;-44
2023/05/22 10:46:02;;;;;;;11.25;4.50;;;38.20;48.40;;;;;;5091970;28;20101;-45
2023/05/22 10:48:37;;;;;;;5.07;4.13;;;38.70;48.40;;;;;;5082942;28;20047;-44
2023/05/22 10:51:03;;;;;;;4.47;3.97;;;38.90;47.90;;;;;;5078411;28;20032;-42
2023/05/22 10:53:33;;;;;;;9.18;4.43;;;38.30;47.70;;;;;;5077781;28;20062;-43
2023/05/22 10:56:07;;;;;;;5.30;4.25;;;38.60;48.00;;;;;;5077730;28;20091;-44
2023/05/22 10:58:37;;;;;;;6.22;4.32;;;38.70;47.50;;;;;;5077685;28;20112;-43
2023/05/22 11:01:14;;;;;;;7.07;4.72;;;39.10;46.20;;;;;;5071564;28;20044;-46
2023/05/22 11:04:05;;;;;;;8.30;4.22;;;38.10;46.90;;;;;;5071206;28;20044;-42
2023/05/22 11:06:48;;;;;;;7.53;4.70;;;38.10;48.10;;;;;;5071674;28;20029;-43
2023/05/22 11:09:42;;;;;;;9.18;5.20;;;38.00;47.20;;;;;;5071737;28;20017;-45
2023/05/22 11:12:16;;;;;;;6.15;5.07;;;38.00;48.20;;;;;;5071073;28;20686;-42
2023/05/22 11:14:55;;;;;;;7.68;4.50;;;37.70;47.00;;;;;;5070934;28;20044;-45
2023/05/22 11:17:22;;;;;;;6.00;4.40;;;37.90;47.10;;;;;;5071463;28;20302;-42
2023/05/22 11:20:00;;;;;;;5.90;4.60;;;37.90;48.90;;;;;;5071344;28;20472;-42
2023/05/22 11:22:36;;;;;;;8.70;4.55;;;37.90;47.50;;;;;;5070930;28;20186;-42
2023/05/22 11:25:10;;;;;;;8.65;4.95;;;37.60;47.90;;;;;;5070481;28;20082;-46
2023/05/22 11:27:38;;;;;;;7.20;4.60;;;37.80;48.20;;;;;;5071369;28;20024;-43
2023/05/22 11:30:04;;;;;;;10.63;4.43;;;37.90;49.20;;;;;;5070973;28;20016;-43
2023/05/22 11:32:29;;;;;;;7.40;4.80;;;37.90;47.40;;;;;;5070558;28;20075;-42
2023/05/22 11:34:56;;;;;;;7.07;4.70;;;37.60;47.60;;;;;;5071092;28;20008;-42
2023/05/22 11:37:22;;;;;;;9.00;4.72;;;36.90;48.40;;;;;;5070856;28;20012;-42
2023/05/22 11:39:54;;;;;;;6.40;4.95;;;37.10;47.80;;;;;;5070979;28;20017;-44
2023/05/22 11:42:20;;;;;;;9.57;4.90;;;36.80;48.90;;;;;;5071023;28;20021;-42
2023/05/22 11:44:46;;;;;;;39.28;34.65;;;36.60;48.50;;;;;;5070801;28;20035;-42
2023/05/22 11:47:11;;;;;;;30.77;24.77;;;36.50;49.60;;;;;;5076243;28;20637;-43
2023/05/22 11:49:37;;;;;;;14.23;12.60;;;36.40;48.80;;;;;;5110618;28;20460;-41
2023/05/22 11:52:03;;;;;;;12.70;5.68;;;36.50;50.70;;;;;;5110042;28;20019;-43
2023/05/22 11:54:31;;;;;;;10.65;4.70;;;36.10;49.10;;;;;;5111344;28;20023;-42
2023/05/22 11:56:57;;;;;;;6.95;5.47;;;36.30;48.50;;;;;;5110200;28;20015;-42
2023/05/22 11:59:23;;;;;;;6.20;4.40;;;35.00;49.30;;;;;;5110124;28;20682;-41
2023/05/22 12:01:49;;;;;;;7.82;5.20;;;34.10;50.50;;;;;;5111779;28;20016;-42
2023/05/22 12:04:15;;;;;;;7.95;5.25;;;33.50;52.30;;;;;;5111073;28;20019;-42
2023/05/22 12:06:41;;;;;;;9.10;5.60;;;33.60;52.30;;;;;;5111409;28;20380;-42
2023/05/22 12:09:07;;;;;;;7.40;5.28;;;33.30;53.10;;;;;;5110086;28;20016;-42
2023/05/22 12:11:36;;;;;;;5.43;4.60;;;33.40;54.20;;;;;;5110681;28;20016;-41
2023/05/22 12:14:02;;;;;;;9.55;5.38;;;33.40;53.80;;;;;;5108544;28;20026;-41
2023/05/22 12:16:35;;;;;;;10.32;5.40;;;33.50;52.60;;;;;;5110342;28;20028;-42
2023/05/22 12:19:09;;;;;;;7.60;5.32;;;33.10;52.90;;;;;;5110838;28;20444;-42
2023/05/22 12:21:37;;;;;;;8.70;5.63;;;32.90;53.20;;;;;;5110739;28;20300;-41
2023/05/22 12:24:03;;;;;;;9.05;5.57;;;32.40;54.20;;;;;;5110259;28;20015;-42
2023/05/22 12:26:30;;;;;;;9.60;5.05;;;32.30;53.80;;;;;;5110492;28;20035;-43
2023/05/22 12:28:57;;;;;;;13.98;6.20;;;32.10;54.70;;;;;;5109140;28;20015;-42
2023/05/22 12:31:23;;;;;;;6.85;5.43;;;31.90;54.70;;;;;;5110674;28;20447;-42
2023/05/22 12:33:52;;;;;;;7.90;5.07;;;31.50;55.50;;;;;;5103439;28;20024;-44
2023/05/22 12:36:17;;;;;;;6.95;4.97;;;31.50;55.40;;;;;;5075452;28;20371;-42
2023/05/22 12:38:43;;;;;;;11.32;5.30;;;31.50;55.90;;;;;;5109406;28;20129;-42
2023/05/22 12:41:08;;;;;;;12.82;5.68;;;31.60;55.50;;;;;;5093281;28;20082;-43
2023/05/22 12:43:34;;;;;;;9.77;5.55;;;31.60;56.20;;;;;;5091729;28;20120;-42
2023/05/22 12:46:00;;;;;;;7.47;5.90;;;31.40;56.50;;;;;;5091193;28;20030;-42